sensor_id;sensor_type;location;lat;lon;timestamp;P1;durP1;ratioP1;P2;durP2;ratioP2
46411;SDS011;32113;42.012;24.870;2024-03-23T00:53:07;7.00;;;3.60;;
46411;SDS011;32113;42.012;24.870;2024-03-23T00:55:33;5.95;;;3.30;;
46411;SDS011;32113;42.012;24.870;2024-03-23T00:57:58;7.72;;;3.58;;
46411;SDS011;32113;42.012;24.870;2024-03-23T01:00:24;5.80;;;3.50;;
46411;SDS011;32113;42.012;24.870;2024-03-23T01:02:49;7.43;;;3.38;;
46411;SDS011;32113;42.012;24.870;2024-03-23T01:05:14;7.13;;;3.60;;
46411;SDS011;32113;42.012;24.870;2024-03-23T01:07:40;6.07;;;3.30;;
46411;SDS011;32113;42.012;24.870;2024-03-23T01:10:05;5.53;;;3.53;;
46411;SDS011;32113;42.012;24.870;2024-03-23T01:12:31;5.80;;;3.47;;
46411;SDS011;32113;42.012;24.870;2024-03-23T01:14:56;4.97;;;3.35;;
46411;SDS011;32113;42.012;24.870;2024-03-23T01:17:22;7.78;;;3.67;;
46411;SDS011;32113;42.012;24.870;2024-03-23T01:19:47;6.43;;;3.30;;
46411;SDS011;32113;42.012;24.870;2024-03-23T01:22:12;7.25;;;3.47;;
46411;SDS011;32113;42.012;24.870;2024-03-23T01:24:38;6.43;;;3.30;;
46411;SDS011;32113;42.012;24.870;2024-03-23T01:27:03;5.57;;;3.10;;
46411;SDS011;32113;42.012;24.870;2024-03-23T01:29:29;5.65;;;3.60;;
46411;SDS011;32113;42.012;24.870;2024-03-23T01:31:54;11.85;;;3.20;;
46411;SDS011;32113;42.012;24.870;2024-03-23T01:34:20;6.20;;;3.78;;
46411;SDS011;32113;42.012;24.870;2024-03-23T01:36:46;5.15;;;3.60;;
46411;SDS011;32113;42.012;24.870;2024-03-23T01:39:12;7.00;;;4.00;;
46411;SDS011;32113;42.012;24.870;2024-03-23T01:41:37;7.78;;;4.43;;
46411;SDS011;32113;42.012;24.870;2024-03-23T01:44:07;5.82;;;3.70;;
46411;SDS011;32113;42.012;24.870;2024-03-23T01:46:33;5.63;;;3.55;;
46411;SDS011;32113;42.012;24.870;2024-03-23T01:48:59;5.72;;;3.33;;
46411;SDS011;32113;42.012;24.870;2024-03-23T01:51:24;5.00;;;3.30;;
46411;SDS011;32113;42.012;24.870;2024-03-23T01:53:51;6.30;;;3.65;;
46411;SDS011;32113;42.012;24.870;2024-03-23T01:56:18;7.00;;;3.60;;
46411;SDS011;32113;42.012;24.870;2024-03-23T01:58:43;9.13;;;5.40;;
46411;SDS011;32113;42.012;24.870;2024-03-23T02:01:09;11.13;;;6.38;;
46411;SDS011;32113;42.012;24.870;2024-03-23T02:03:34;19.73;;;10.68;;
46411;SDS011;32113;42.012;24.870;2024-03-23T02:05:59;30.92;;;16.20;;
46411;SDS011;32113;42.012;24.870;2024-03-23T02:08:25;23.63;;;11.43;;
46411;SDS011;32113;42.012;24.870;2024-03-23T02:10:51;16.13;;;9.55;;
46411;SDS011;32113;42.012;24.870;2024-03-23T02:13:17;18.33;;;9.50;;
46411;SDS011;32113;42.012;24.870;2024-03-23T02:15:43;12.75;;;7.03;;
46411;SDS011;32113;42.012;24.870;2024-03-23T02:18:09;11.98;;;6.30;;
46411;SDS011;32113;42.012;24.870;2024-03-23T02:20:35;10.27;;;5.68;;
46411;SDS011;32113;42.012;24.870;2024-03-23T02:23:02;10.65;;;5.35;;
46411;SDS011;32113;42.012;24.870;2024-03-23T02:25:28;8.93;;;5.10;;
46411;SDS011;32113;42.012;24.870;2024-03-23T02:27:53;8.80;;;5.43;;
46411;SDS011;32113;42.012;24.870;2024-03-23T02:30:23;10.45;;;5.15;;
46411;SDS011;32113;42.012;24.870;2024-03-23T02:32:49;9.45;;;5.28;;
46411;SDS011;32113;42.012;24.870;2024-03-23T02:35:14;8.48;;;5.05;;
46411;SDS011;32113;42.012;24.870;2024-03-23T02:37:40;6.07;;;3.45;;
46411;SDS011;32113;42.012;24.870;2024-03-23T02:40:05;6.05;;;3.85;;
46411;SDS011;32113;42.012;24.870;2024-03-23T02:42:31;7.25;;;3.72;;
46411;SDS011;32113;42.012;24.870;2024-03-23T02:44:57;5.32;;;3.60;;
46411;SDS011;32113;42.012;24.870;2024-03-23T02:47:23;5.43;;;3.58;;
46411;SDS011;32113;42.012;24.870;2024-03-23T02:49:49;5.25;;;3.72;;
46411;SDS011;32113;42.012;24.870;2024-03-23T02:52:14;5.47;;;3.40;;
46411;SDS011;32113;42.012;24.870;2024-03-23T02:54:40;4.90;;;3.45;;
46411;SDS011;32113;42.012;24.870;2024-03-23T02:57:07;4.45;;;3.20;;
46411;SDS011;32113;42.012;24.870;2024-03-23T02:59:32;6.45;;;3.58;;
46411;SDS011;32113;42.012;24.870;2024-03-23T03:01:58;6.28;;;3.92;;
46411;SDS011;32113;42.012;24.870;2024-03-23T03:04:25;6.90;;;3.63;;
46411;SDS011;32113;42.012;24.870;2024-03-23T03:06:50;7.00;;;3.47;;
46411;SDS011;32113;42.012;24.870;2024-03-23T03:09:15;6.85;;;3.60;;
46411;SDS011;32113;42.012;24.870;2024-03-23T03:11:41;4.45;;;3.08;;
46411;SDS011;32113;42.012;24.870;2024-03-23T03:14:06;4.95;;;3.60;;
46411;SDS011;32113;42.012;24.870;2024-03-23T03:16:33;6.43;;;3.95;;
46411;SDS011;32113;42.012;24.870;2024-03-23T03:18:58;7.13;;;3.83;;
46411;SDS011;32113;42.012;24.870;2024-03-23T03:21:24;5.38;;;3.97;;
46411;SDS011;32113;42.012;24.870;2024-03-23T03:23:49;5.15;;;3.58;;
46411;SDS011;32113;42.012;24.870;2024-03-23T03:26:16;6.65;;;3.63;;
46411;SDS011;32113;42.012;24.870;2024-03-23T03:28:42;9.15;;;4.10;;
46411;SDS011;32113;42.012;24.870;2024-03-23T03:31:08;8.13;;;3.60;;
46411;SDS011;32113;42.012;24.870;2024-03-23T03:33:33;6.88;;;4.05;;
46411;SDS011;32113;42.012;24.870;2024-03-23T03:35:59;7.13;;;3.97;;
46411;SDS011;32113;42.012;24.870;2024-03-23T03:38:24;7.38;;;4.38;;
46411;SDS011;32113;42.012;24.870;2024-03-23T03:40:49;5.93;;;4.40;;
46411;SDS011;32113;42.012;24.870;2024-03-23T03:43:15;7.18;;;4.28;;
46411;SDS011;32113;42.012;24.870;2024-03-23T03:45:40;7.78;;;4.00;;
46411;SDS011;32113;42.012;24.870;2024-03-23T03:48:06;7.85;;;4.00;;
46411;SDS011;32113;42.012;24.870;2024-03-23T03:50:32;6.78;;;4.00;;
46411;SDS011;32113;42.012;24.870;2024-03-23T03:52:58;4.95;;;3.60;;
46411;SDS011;32113;42.012;24.870;2024-03-23T03:55:23;6.78;;;4.13;;
46411;SDS011;32113;42.012;24.870;2024-03-23T03:57:48;6.32;;;4.03;;
46411;SDS011;32113;42.012;24.870;2024-03-23T04:00:14;5.72;;;3.58;;
46411;SDS011;32113;42.012;24.870;2024-03-23T04:02:40;10.27;;;3.90;;
46411;SDS011;32113;42.012;24.870;2024-03-23T04:05:05;6.10;;;3.70;;
46411;SDS011;32113;42.012;24.870;2024-03-23T04:07:31;6.30;;;3.75;;
46411;SDS011;32113;42.012;24.870;2024-03-23T04:09:57;6.10;;;3.33;;
46411;SDS011;32113;42.012;24.870;2024-03-23T04:12:23;5.70;;;3.55;;
46411;SDS011;32113;42.012;24.870;2024-03-23T04:14:49;5.18;;;3.40;;
46411;SDS011;32113;42.012;24.870;2024-03-23T04:17:14;7.97;;;4.30;;
46411;SDS011;32113;42.012;24.870;2024-03-23T04:19:39;8.10;;;5.20;;
46411;SDS011;32113;42.012;24.870;2024-03-23T04:22:06;9.90;;;5.55;;
46411;SDS011;32113;42.012;24.870;2024-03-23T04:24:31;6.97;;;5.30;;
46411;SDS011;32113;42.012;24.870;2024-03-23T04:26:56;11.05;;;4.35;;
46411;SDS011;32113;42.012;24.870;2024-03-23T04:29:22;5.88;;;3.90;;
46411;SDS011;32113;42.012;24.870;2024-03-23T04:31:48;7.68;;;4.13;;
46411;SDS011;32113;42.012;24.870;2024-03-23T04:34:13;6.55;;;3.75;;
46411;SDS011;32113;42.012;24.870;2024-03-23T04:36:39;7.90;;;4.53;;
46411;SDS011;32113;42.012;24.870;2024-03-23T04:39:05;6.90;;;4.13;;
46411;SDS011;32113;42.012;24.870;2024-03-23T04:41:33;6.65;;;4.13;;
46411;SDS011;32113;42.012;24.870;2024-03-23T04:43:59;8.52;;;4.72;;
46411;SDS011;32113;42.012;24.870;2024-03-23T04:46:24;10.13;;;4.88;;
46411;SDS011;32113;42.012;24.870;2024-03-23T04:48:50;6.65;;;3.90;;
46411;SDS011;32113;42.012;24.870;2024-03-23T04:51:24;10.70;;;4.78;;
46411;SDS011;32113;42.012;24.870;2024-03-23T04:53:50;6.05;;;3.83;;
46411;SDS011;32113;42.012;24.870;2024-03-23T04:56:16;5.13;;;3.58;;
46411;SDS011;32113;42.012;24.870;2024-03-23T04:58:42;7.43;;;3.85;;
46411;SDS011;32113;42.012;24.870;2024-03-23T05:01:07;9.02;;;4.25;;
46411;SDS011;32113;42.012;24.870;2024-03-23T05:03:33;8.10;;;3.67;;
46411;SDS011;32113;42.012;24.870;2024-03-23T05:05:59;6.18;;;4.07;;
46411;SDS011;32113;42.012;24.870;2024-03-23T05:08:24;9.98;;;5.68;;
46411;SDS011;32113;42.012;24.870;2024-03-23T05:10:49;9.18;;;5.70;;
46411;SDS011;32113;42.012;24.870;2024-03-23T05:13:15;15.35;;;8.63;;
46411;SDS011;32113;42.012;24.870;2024-03-23T05:15:40;12.27;;;7.53;;
46411;SDS011;32113;42.012;24.870;2024-03-23T05:18:06;19.48;;;8.30;;
46411;SDS011;32113;42.012;24.870;2024-03-23T05:20:31;10.77;;;5.97;;
46411;SDS011;32113;42.012;24.870;2024-03-23T05:22:57;11.80;;;7.53;;
46411;SDS011;32113;42.012;24.870;2024-03-23T05:25:22;16.25;;;8.85;;
46411;SDS011;32113;42.012;24.870;2024-03-23T05:27:48;21.92;;;8.13;;
46411;SDS011;32113;42.012;24.870;2024-03-23T05:30:14;21.38;;;12.10;;
46411;SDS011;32113;42.012;24.870;2024-03-23T05:32:39;16.42;;;9.88;;
46411;SDS011;32113;42.012;24.870;2024-03-23T05:35:07;17.00;;;7.85;;
46411;SDS011;32113;42.012;24.870;2024-03-23T05:37:33;21.08;;;8.57;;
46411;SDS011;32113;42.012;24.870;2024-03-23T05:40:02;12.95;;;6.65;;
46411;SDS011;32113;42.012;24.870;2024-03-23T05:42:28;6.93;;;4.68;;
46411;SDS011;32113;42.012;24.870;2024-03-23T05:44:54;10.20;;;3.83;;
46411;SDS011;32113;42.012;24.870;2024-03-23T05:47:19;6.13;;;3.50;;
46411;SDS011;32113;42.012;24.870;2024-03-23T05:49:45;6.78;;;3.70;;
46411;SDS011;32113;42.012;24.870;2024-03-23T05:52:11;5.68;;;3.47;;
46411;SDS011;32113;42.012;24.870;2024-03-23T05:54:37;7.00;;;3.63;;
46411;SDS011;32113;42.012;24.870;2024-03-23T05:57:03;5.25;;;3.50;;
46411;SDS011;32113;42.012;24.870;2024-03-23T05:59:28;6.20;;;4.05;;
46411;SDS011;32113;42.012;24.870;2024-03-23T06:01:54;22.63;;;10.65;;
46411;SDS011;32113;42.012;24.870;2024-03-23T06:04:19;25.10;;;11.93;;
46411;SDS011;32113;42.012;24.870;2024-03-23T06:06:46;21.98;;;10.90;;
46411;SDS011;32113;42.012;24.870;2024-03-23T06:09:11;19.60;;;10.13;;
46411;SDS011;32113;42.012;24.870;2024-03-23T06:11:37;22.08;;;10.40;;
46411;SDS011;32113;42.012;24.870;2024-03-23T06:14:02;25.00;;;10.63;;
46411;SDS011;32113;42.012;24.870;2024-03-23T06:16:27;22.88;;;9.63;;
46411;SDS011;32113;42.012;24.870;2024-03-23T06:18:53;11.13;;;6.40;;
46411;SDS011;32113;42.012;24.870;2024-03-23T06:21:20;14.90;;;7.38;;
46411;SDS011;32113;42.012;24.870;2024-03-23T06:23:45;15.30;;;6.95;;
46411;SDS011;32113;42.012;24.870;2024-03-23T06:26:16;10.93;;;6.07;;
46411;SDS011;32113;42.012;24.870;2024-03-23T06:28:42;9.73;;;5.68;;
46411;SDS011;32113;42.012;24.870;2024-03-23T06:31:11;7.05;;;4.20;;
46411;SDS011;32113;42.012;24.870;2024-03-23T06:33:36;7.20;;;3.90;;
46411;SDS011;32113;42.012;24.870;2024-03-23T06:36:03;23.55;;;10.65;;
46411;SDS011;32113;42.012;24.870;2024-03-23T06:38:31;18.75;;;10.88;;
46411;SDS011;32113;42.012;24.870;2024-03-23T06:40:56;17.73;;;9.52;;
46411;SDS011;32113;42.012;24.870;2024-03-23T06:43:23;21.02;;;10.45;;
46411;SDS011;32113;42.012;24.870;2024-03-23T06:45:54;17.25;;;8.77;;
46411;SDS011;32113;42.012;24.870;2024-03-23T06:48:20;20.58;;;10.25;;
46411;SDS011;32113;42.012;24.870;2024-03-23T06:50:49;22.52;;;10.48;;
46411;SDS011;32113;42.012;24.870;2024-03-23T06:53:14;20.77;;;10.48;;
46411;SDS011;32113;42.012;24.870;2024-03-23T06:55:40;17.75;;;10.18;;
46411;SDS011;32113;42.012;24.870;2024-03-23T06:58:06;21.67;;;10.77;;
46411;SDS011;32113;42.012;24.870;2024-03-23T07:00:32;24.83;;;11.95;;
46411;SDS011;32113;42.012;24.870;2024-03-23T07:02:58;24.33;;;11.07;;
46411;SDS011;32113;42.012;24.870;2024-03-23T07:05:24;17.42;;;10.65;;
46411;SDS011;32113;42.012;24.870;2024-03-23T07:07:49;15.95;;;9.18;;
46411;SDS011;32113;42.012;24.870;2024-03-23T07:10:15;17.30;;;9.32;;
46411;SDS011;32113;42.012;24.870;2024-03-23T07:12:40;19.27;;;11.35;;
46411;SDS011;32113;42.012;24.870;2024-03-23T07:15:06;13.40;;;8.93;;
46411;SDS011;32113;42.012;24.870;2024-03-23T07:17:33;15.88;;;8.68;;
46411;SDS011;32113;42.012;24.870;2024-03-23T07:20:00;16.48;;;9.00;;
46411;SDS011;32113;42.012;24.870;2024-03-23T07:22:27;17.83;;;8.90;;
46411;SDS011;32113;42.012;24.870;2024-03-23T07:24:52;13.95;;;8.90;;
46411;SDS011;32113;42.012;24.870;2024-03-23T07:27:17;18.40;;;8.93;;
46411;SDS011;32113;42.012;24.870;2024-03-23T07:29:43;16.48;;;8.80;;
46411;SDS011;32113;42.012;24.870;2024-03-23T07:32:08;13.77;;;8.85;;
46411;SDS011;32113;42.012;24.870;2024-03-23T07:34:33;20.65;;;8.25;;
46411;SDS011;32113;42.012;24.870;2024-03-23T07:36:59;14.35;;;7.80;;
46411;SDS011;32113;42.012;24.870;2024-03-23T07:39:25;13.52;;;7.90;;
46411;SDS011;32113;42.012;24.870;2024-03-23T07:41:52;19.52;;;7.55;;
46411;SDS011;32113;42.012;24.870;2024-03-23T07:44:18;10.10;;;7.03;;
46411;SDS011;32113;42.012;24.870;2024-03-23T07:46:43;16.10;;;7.32;;
46411;SDS011;32113;42.012;24.870;2024-03-23T07:49:08;14.75;;;7.50;;
46411;SDS011;32113;42.012;24.870;2024-03-23T07:51:34;16.90;;;7.65;;
46411;SDS011;32113;42.012;24.870;2024-03-23T07:54:00;11.20;;;6.05;;
46411;SDS011;32113;42.012;24.870;2024-03-23T07:56:25;18.83;;;7.47;;
46411;SDS011;32113;42.012;24.870;2024-03-23T07:58:51;16.20;;;6.97;;
46411;SDS011;32113;42.012;24.870;2024-03-23T08:01:17;13.48;;;6.88;;
46411;SDS011;32113;42.012;24.870;2024-03-23T08:03:43;14.35;;;6.95;;
46411;SDS011;32113;42.012;24.870;2024-03-23T08:06:10;19.42;;;6.72;;
46411;SDS011;32113;42.012;24.870;2024-03-23T08:11:41;14.75;;;7.47;;
46411;SDS011;32113;42.012;24.870;2024-03-23T08:14:09;16.10;;;8.50;;
46411;SDS011;32113;42.012;24.870;2024-03-23T08:16:35;14.50;;;7.35;;
46411;SDS011;32113;42.012;24.870;2024-03-23T08:19:00;14.00;;;7.80;;
46411;SDS011;32113;42.012;24.870;2024-03-23T08:21:28;18.55;;;10.13;;
46411;SDS011;32113;42.012;24.870;2024-03-23T08:23:53;33.90;;;12.27;;
46411;SDS011;32113;42.012;24.870;2024-03-23T08:26:19;27.15;;;12.88;;
46411;SDS011;32113;42.012;24.870;2024-03-23T08:28:44;33.35;;;13.63;;
46411;SDS011;32113;42.012;24.870;2024-03-23T08:31:10;28.55;;;13.60;;
46411;SDS011;32113;42.012;24.870;2024-03-23T08:33:37;33.30;;;14.70;;
46411;SDS011;32113;42.012;24.870;2024-03-23T08:36:07;26.95;;;14.13;;
46411;SDS011;32113;42.012;24.870;2024-03-23T08:38:34;23.65;;;12.07;;
46411;SDS011;32113;42.012;24.870;2024-03-23T08:41:09;16.55;;;8.55;;
46411;SDS011;32113;42.012;24.870;2024-03-23T08:43:36;19.98;;;9.73;;
46411;SDS011;32113;42.012;24.870;2024-03-23T08:48:30;25.98;;;11.60;;
46411;SDS011;32113;42.012;24.870;2024-03-23T08:51:13;22.02;;;10.30;;
46411;SDS011;32113;42.012;24.870;2024-03-23T08:53:40;21.10;;;10.40;;
46411;SDS011;32113;42.012;24.870;2024-03-23T08:56:06;20.23;;;11.10;;
46411;SDS011;32113;42.012;24.870;2024-03-23T08:58:32;22.60;;;9.10;;
46411;SDS011;32113;42.012;24.870;2024-03-23T09:01:32;19.88;;;9.70;;
46411;SDS011;32113;42.012;24.870;2024-03-23T09:03:50;18.83;;;8.32;;
46411;SDS011;32113;42.012;24.870;2024-03-23T09:06:16;13.98;;;7.90;;
46411;SDS011;32113;42.012;24.870;2024-03-23T09:08:42;23.13;;;8.10;;
46411;SDS011;32113;42.012;24.870;2024-03-23T09:11:08;16.08;;;7.63;;
46411;SDS011;32113;42.012;24.870;2024-03-23T09:13:37;17.38;;;7.95;;
46411;SDS011;32113;42.012;24.870;2024-03-23T09:16:03;18.90;;;7.47;;
46411;SDS011;32113;42.012;24.870;2024-03-23T09:18:31;22.00;;;7.50;;
46411;SDS011;32113;42.012;24.870;2024-03-23T09:21:01;12.98;;;6.60;;
46411;SDS011;32113;42.012;24.870;2024-03-23T09:23:27;17.83;;;7.05;;
46411;SDS011;32113;42.012;24.870;2024-03-23T09:25:52;14.88;;;7.45;;
46411;SDS011;32113;42.012;24.870;2024-03-23T09:28:18;13.75;;;6.72;;
46411;SDS011;32113;42.012;24.870;2024-03-23T09:30:43;17.58;;;7.28;;
46411;SDS011;32113;42.012;24.870;2024-03-23T09:33:09;10.85;;;6.40;;
46411;SDS011;32113;42.012;24.870;2024-03-23T09:35:39;11.02;;;6.35;;
46411;SDS011;32113;42.012;24.870;2024-03-23T09:38:05;11.52;;;7.80;;
46411;SDS011;32113;42.012;24.870;2024-03-23T09:40:32;14.15;;;6.55;;
46411;SDS011;32113;42.012;24.870;2024-03-23T09:42:57;10.20;;;6.68;;
46411;SDS011;32113;42.012;24.870;2024-03-23T09:45:29;9.50;;;6.90;;
46411;SDS011;32113;42.012;24.870;2024-03-23T09:47:55;17.42;;;6.32;;
46411;SDS011;32113;42.012;24.870;2024-03-23T09:50:21;10.80;;;5.50;;
46411;SDS011;32113;42.012;24.870;2024-03-23T09:52:47;10.40;;;5.55;;
46411;SDS011;32113;42.012;24.870;2024-03-23T09:55:12;10.07;;;6.28;;
46411;SDS011;32113;42.012;24.870;2024-03-23T09:57:39;8.70;;;5.85;;
46411;SDS011;32113;42.012;24.870;2024-03-23T10:00:05;12.02;;;6.68;;
46411;SDS011;32113;42.012;24.870;2024-03-23T10:02:31;13.38;;;6.00;;
46411;SDS011;32113;42.012;24.870;2024-03-23T10:04:57;14.40;;;6.18;;
46411;SDS011;32113;42.012;24.870;2024-03-23T10:07:23;10.30;;;5.28;;
46411;SDS011;32113;42.012;24.870;2024-03-23T10:09:48;13.70;;;8.15;;
46411;SDS011;32113;42.012;24.870;2024-03-23T10:12:16;14.68;;;5.57;;
46411;SDS011;32113;42.012;24.870;2024-03-23T10:14:43;14.77;;;7.00;;
46411;SDS011;32113;42.012;24.870;2024-03-23T10:19:44;12.60;;;6.05;;
46411;SDS011;32113;42.012;24.870;2024-03-23T10:22:21;10.65;;;5.22;;
46411;SDS011;32113;42.012;24.870;2024-03-23T10:24:48;8.35;;;5.10;;
46411;SDS011;32113;42.012;24.870;2024-03-23T10:27:20;12.57;;;5.15;;
46411;SDS011;32113;42.012;24.870;2024-03-23T10:29:46;12.30;;;5.30;;
46411;SDS011;32113;42.012;24.870;2024-03-23T10:32:13;11.70;;;6.00;;
46411;SDS011;32113;42.012;24.870;2024-03-23T10:34:40;7.90;;;5.93;;
46411;SDS011;32113;42.012;24.870;2024-03-23T10:37:06;9.77;;;4.70;;
46411;SDS011;32113;42.012;24.870;2024-03-23T10:39:32;11.05;;;5.03;;
46411;SDS011;32113;42.012;24.870;2024-03-23T10:42:02;8.68;;;5.43;;
46411;SDS011;32113;42.012;24.870;2024-03-23T10:44:29;9.55;;;5.40;;
46411;SDS011;32113;42.012;24.870;2024-03-23T10:46:56;14.43;;;5.67;;
46411;SDS011;32113;42.012;24.870;2024-03-23T10:52:00;5.47;;;4.55;;
46411;SDS011;32113;42.012;24.870;2024-03-23T10:54:27;9.70;;;4.80;;
46411;SDS011;32113;42.012;24.870;2024-03-23T10:57:06;9.73;;;5.10;;
46411;SDS011;32113;42.012;24.870;2024-03-23T10:59:37;7.05;;;4.30;;
46411;SDS011;32113;42.012;24.870;2024-03-23T11:02:03;13.73;;;5.00;;
46411;SDS011;32113;42.012;24.870;2024-03-23T11:04:29;7.18;;;4.22;;
46411;SDS011;32113;42.012;24.870;2024-03-23T11:06:58;7.22;;;4.50;;
46411;SDS011;32113;42.012;24.870;2024-03-23T11:09:42;10.15;;;5.03;;
46411;SDS011;32113;42.012;24.870;2024-03-23T11:12:29;8.75;;;5.18;;
46411;SDS011;32113;42.012;24.870;2024-03-23T11:15:11;8.60;;;4.80;;
46411;SDS011;32113;42.012;24.870;2024-03-23T11:17:38;7.38;;;4.28;;
46411;SDS011;32113;42.012;24.870;2024-03-23T11:20:04;6.68;;;5.10;;
46411;SDS011;32113;42.012;24.870;2024-03-23T11:22:49;10.57;;;4.97;;
46411;SDS011;32113;42.012;24.870;2024-03-23T11:27:47;10.13;;;4.90;;
46411;SDS011;32113;42.012;24.870;2024-03-23T11:30:18;11.65;;;5.72;;
46411;SDS011;32113;42.012;24.870;2024-03-23T11:32:46;9.20;;;5.15;;
46411;SDS011;32113;42.012;24.870;2024-03-23T11:38:10;6.15;;;4.78;;
46411;SDS011;32113;42.012;24.870;2024-03-23T11:40:40;6.85;;;4.90;;
46411;SDS011;32113;42.012;24.870;2024-03-23T11:43:10;10.23;;;5.65;;
46411;SDS011;32113;42.012;24.870;2024-03-23T11:45:39;8.27;;;5.32;;
46411;SDS011;32113;42.012;24.870;2024-03-23T11:48:07;15.45;;;5.75;;
46411;SDS011;32113;42.012;24.870;2024-03-23T11:50:38;9.00;;;5.03;;
46411;SDS011;32113;42.012;24.870;2024-03-23T11:55:41;6.78;;;4.90;;
46411;SDS011;32113;42.012;24.870;2024-03-23T11:58:18;9.48;;;5.95;;
46411;SDS011;32113;42.012;24.870;2024-03-23T12:01:00;10.55;;;6.50;;
46411;SDS011;32113;42.012;24.870;2024-03-23T12:03:29;9.75;;;5.97;;
46411;SDS011;32113;42.012;24.870;2024-03-23T12:06:00;8.73;;;5.80;;
46411;SDS011;32113;42.012;24.870;2024-03-23T12:08:31;10.00;;;5.97;;
46411;SDS011;32113;42.012;24.870;2024-03-23T12:11:13;7.63;;;5.32;;
46411;SDS011;32113;42.012;24.870;2024-03-23T12:13:40;7.63;;;5.28;;
46411;SDS011;32113;42.012;24.870;2024-03-23T12:16:17;11.52;;;5.43;;
46411;SDS011;32113;42.012;24.870;2024-03-23T12:18:48;7.25;;;5.10;;
46411;SDS011;32113;42.012;24.870;2024-03-23T12:21:14;10.60;;;6.30;;
46411;SDS011;32113;42.012;24.870;2024-03-23T12:23:40;9.02;;;6.32;;
46411;SDS011;32113;42.012;24.870;2024-03-23T12:26:06;10.38;;;5.78;;
46411;SDS011;32113;42.012;24.870;2024-03-23T12:28:32;8.35;;;5.13;;
46411;SDS011;32113;42.012;24.870;2024-03-23T12:30:58;15.75;;;6.13;;
46411;SDS011;32113;42.012;24.870;2024-03-23T12:33:24;12.60;;;5.43;;
46411;SDS011;32113;42.012;24.870;2024-03-23T12:35:49;8.45;;;5.13;;
46411;SDS011;32113;42.012;24.870;2024-03-23T12:38:15;8.15;;;4.90;;
46411;SDS011;32113;42.012;24.870;2024-03-23T12:40:41;10.10;;;5.18;;
46411;SDS011;32113;42.012;24.870;2024-03-23T12:43:06;6.22;;;4.40;;
46411;SDS011;32113;42.012;24.870;2024-03-23T12:45:35;7.65;;;4.65;;
46411;SDS011;32113;42.012;24.870;2024-03-23T12:48:00;7.72;;;5.35;;
46411;SDS011;32113;42.012;24.870;2024-03-23T12:50:26;9.82;;;5.47;;
46411;SDS011;32113;42.012;24.870;2024-03-23T12:52:51;6.38;;;4.53;;
46411;SDS011;32113;42.012;24.870;2024-03-23T12:55:17;6.53;;;4.43;;
46411;SDS011;32113;42.012;24.870;2024-03-23T12:57:43;11.85;;;4.60;;
46411;SDS011;32113;42.012;24.870;2024-03-23T13:00:08;8.52;;;4.55;;
46411;SDS011;32113;42.012;24.870;2024-03-23T13:02:37;8.52;;;4.63;;
46411;SDS011;32113;42.012;24.870;2024-03-23T13:05:04;6.25;;;3.97;;
46411;SDS011;32113;42.012;24.870;2024-03-23T13:07:30;6.45;;;3.90;;
46411;SDS011;32113;42.012;24.870;2024-03-23T13:09:55;7.15;;;3.83;;
46411;SDS011;32113;42.012;24.870;2024-03-23T13:12:21;7.90;;;4.75;;
46411;SDS011;32113;42.012;24.870;2024-03-23T13:14:47;6.28;;;4.25;;
46411;SDS011;32113;42.012;24.870;2024-03-23T13:17:13;6.40;;;4.32;;
46411;SDS011;32113;42.012;24.870;2024-03-23T13:19:38;10.20;;;4.65;;
46411;SDS011;32113;42.012;24.870;2024-03-23T13:22:04;9.75;;;4.43;;
46411;SDS011;32113;42.012;24.870;2024-03-23T13:24:30;7.97;;;3.83;;
46411;SDS011;32113;42.012;24.870;2024-03-23T13:26:55;6.13;;;3.92;;
46411;SDS011;32113;42.012;24.870;2024-03-23T13:29:22;4.93;;;3.38;;
46411;SDS011;32113;42.012;24.870;2024-03-23T13:31:49;5.30;;;3.40;;
46411;SDS011;32113;42.012;24.870;2024-03-23T13:34:15;5.30;;;3.22;;
46411;SDS011;32113;42.012;24.870;2024-03-23T13:36:42;5.32;;;3.38;;
46411;SDS011;32113;42.012;24.870;2024-03-23T13:39:09;6.53;;;2.97;;
46411;SDS011;32113;42.012;24.870;2024-03-23T13:41:41;3.90;;;2.80;;
46411;SDS011;32113;42.012;24.870;2024-03-23T13:44:09;4.15;;;2.70;;
46411;SDS011;32113;42.012;24.870;2024-03-23T13:46:41;4.88;;;3.20;;
46411;SDS011;32113;42.012;24.870;2024-03-23T13:49:18;6.63;;;3.10;;
46411;SDS011;32113;42.012;24.870;2024-03-23T13:51:50;10.18;;;3.05;;
46411;SDS011;32113;42.012;24.870;2024-03-23T13:54:16;4.85;;;2.50;;
46411;SDS011;32113;42.012;24.870;2024-03-23T13:56:41;3.92;;;2.88;;
46411;SDS011;32113;42.012;24.870;2024-03-23T13:59:06;4.20;;;2.58;;
46411;SDS011;32113;42.012;24.870;2024-03-23T14:01:32;5.38;;;2.72;;
46411;SDS011;32113;42.012;24.870;2024-03-23T14:03:57;4.32;;;3.00;;
46411;SDS011;32113;42.012;24.870;2024-03-23T14:06:23;5.85;;;3.00;;
46411;SDS011;32113;42.012;24.870;2024-03-23T14:08:49;4.15;;;2.90;;
46411;SDS011;32113;42.012;24.870;2024-03-23T14:11:14;4.30;;;2.90;;
46411;SDS011;32113;42.012;24.870;2024-03-23T14:13:40;5.28;;;3.13;;
46411;SDS011;32113;42.012;24.870;2024-03-23T14:16:05;5.18;;;3.30;;
46411;SDS011;32113;42.012;24.870;2024-03-23T14:18:31;4.32;;;3.00;;
46411;SDS011;32113;42.012;24.870;2024-03-23T14:20:57;4.78;;;3.17;;
46411;SDS011;32113;42.012;24.870;2024-03-23T14:23:28;4.07;;;3.03;;
46411;SDS011;32113;42.012;24.870;2024-03-23T14:25:55;6.93;;;3.33;;
46411;SDS011;32113;42.012;24.870;2024-03-23T14:28:21;5.10;;;3.28;;
46411;SDS011;32113;42.012;24.870;2024-03-23T14:30:48;5.53;;;2.80;;
46411;SDS011;32113;42.012;24.870;2024-03-23T14:33:17;6.63;;;3.25;;
46411;SDS011;32113;42.012;24.870;2024-03-23T14:35:43;4.40;;;3.05;;
46411;SDS011;32113;42.012;24.870;2024-03-23T14:38:17;5.28;;;2.63;;
46411;SDS011;32113;42.012;24.870;2024-03-23T14:40:43;7.70;;;3.10;;
46411;SDS011;32113;42.012;24.870;2024-03-23T14:43:09;5.18;;;3.10;;
46411;SDS011;32113;42.012;24.870;2024-03-23T14:45:34;6.65;;;4.18;;
46411;SDS011;32113;42.012;24.870;2024-03-23T14:47:59;5.90;;;3.83;;
46411;SDS011;32113;42.012;24.870;2024-03-23T14:50:25;5.13;;;3.63;;
46411;SDS011;32113;42.012;24.870;2024-03-23T14:52:51;4.60;;;3.47;;
46411;SDS011;32113;42.012;24.870;2024-03-23T14:55:16;4.43;;;3.30;;
46411;SDS011;32113;42.012;24.870;2024-03-23T14:57:42;7.63;;;3.70;;
46411;SDS011;32113;42.012;24.870;2024-03-23T15:00:08;7.25;;;4.20;;
46411;SDS011;32113;42.012;24.870;2024-03-23T15:02:38;5.70;;;3.40;;
46411;SDS011;32113;42.012;24.870;2024-03-23T15:05:04;4.80;;;3.33;;
46411;SDS011;32113;42.012;24.870;2024-03-23T15:07:34;6.72;;;4.30;;
46411;SDS011;32113;42.012;24.870;2024-03-23T15:10:00;5.88;;;4.28;;
46411;SDS011;32113;42.012;24.870;2024-03-23T15:12:26;8.23;;;4.32;;
46411;SDS011;32113;42.012;24.870;2024-03-23T15:14:51;8.18;;;4.55;;
46411;SDS011;32113;42.012;24.870;2024-03-23T15:17:18;8.20;;;4.78;;
46411;SDS011;32113;42.012;24.870;2024-03-23T15:19:43;10.13;;;5.35;;
46411;SDS011;32113;42.012;24.870;2024-03-23T15:22:09;9.60;;;4.70;;
46411;SDS011;32113;42.012;24.870;2024-03-23T15:24:35;8.95;;;4.20;;
46411;SDS011;32113;42.012;24.870;2024-03-23T15:27:01;8.55;;;3.75;;
46411;SDS011;32113;42.012;24.870;2024-03-23T15:29:29;7.97;;;3.90;;
46411;SDS011;32113;42.012;24.870;2024-03-23T15:31:55;5.78;;;3.92;;
46411;SDS011;32113;42.012;24.870;2024-03-23T15:34:20;10.23;;;4.25;;
46411;SDS011;32113;42.012;24.870;2024-03-23T15:36:48;8.48;;;4.45;;